sensor_id;sensor_type;location;lat;lon;timestamp;P1;durP1;ratioP1;P2;durP2;ratioP2
59728;SDS011;45588;51.598;5.618;2023-04-02T00:05:25;24.60;;;21.95;;
59728;SDS011;45588;51.598;5.618;2023-04-02T00:07:55;26.15;;;20.92;;
59728;SDS011;45588;51.598;5.618;2023-04-02T00:10:30;23.20;;;20.65;;
59728;SDS011;45588;51.598;5.618;2023-04-02T00:13:58;21.70;;;19.40;;
59728;SDS011;45588;51.598;5.618;2023-04-02T00:15:51;23.83;;;18.67;;
59728;SDS011;45588;51.598;5.618;2023-04-02T00:18:20;23.73;;;21.35;;
59728;SDS011;45588;51.598;5.618;2023-04-02T00:20:47;24.42;;;19.90;;
59728;SDS011;45588;51.598;5.618;2023-04-02T00:23:14;22.05;;;19.58;;
59728;SDS011;45588;51.598;5.618;2023-04-02T00:25:40;22.33;;;17.85;;
59728;SDS011;45588;51.598;5.618;2023-04-02T00:28:17;25.05;;;19.73;;
59728;SDS011;45588;51.598;5.618;2023-04-02T00:30:49;27.02;;;24.30;;
59728;SDS011;45588;51.598;5.618;2023-04-02T00:33:16;26.65;;;20.48;;
59728;SDS011;45588;51.598;5.618;2023-04-02T00:35:42;31.40;;;22.23;;
59728;SDS011;45588;51.598;5.618;2023-04-02T00:38:10;26.83;;;23.33;;
59728;SDS011;45588;51.598;5.618;2023-04-02T00:40:40;29.98;;;23.67;;
59728;SDS011;45588;51.598;5.618;2023-04-02T00:43:06;30.38;;;24.30;;
59728;SDS011;45588;51.598;5.618;2023-04-02T00:45:34;29.08;;;24.05;;
59728;SDS011;45588;51.598;5.618;2023-04-02T00:48:45;28.73;;;21.55;;
59728;SDS011;45588;51.598;5.618;2023-04-02T00:50:50;27.05;;;22.02;;
59728;SDS011;45588;51.598;5.618;2023-04-02T00:53:26;24.98;;;21.27;;
59728;SDS011;45588;51.598;5.618;2023-04-02T00:55:52;30.30;;;21.30;;
59728;SDS011;45588;51.598;5.618;2023-04-02T00:58:21;27.80;;;22.05;;
59728;SDS011;45588;51.598;5.618;2023-04-02T01:00:48;26.05;;;21.35;;
59728;SDS011;45588;51.598;5.618;2023-04-02T01:08:34;26.17;;;20.83;;
59728;SDS011;45588;51.598;5.618;2023-04-02T01:11:21;31.63;;;21.10;;
59728;SDS011;45588;51.598;5.618;2023-04-02T01:14:29;23.23;;;20.08;;
59728;SDS011;45588;51.598;5.618;2023-04-02T01:19:24;25.45;;;20.90;;
59728;SDS011;45588;51.598;5.618;2023-04-02T01:21:56;25.23;;;20.15;;
59728;SDS011;45588;51.598;5.618;2023-04-02T01:24:30;26.37;;;23.30;;
59728;SDS011;45588;51.598;5.618;2023-04-02T01:26:56;27.17;;;23.17;;
59728;SDS011;45588;51.598;5.618;2023-04-02T01:29:24;24.00;;;19.98;;
59728;SDS011;45588;51.598;5.618;2023-04-02T01:31:50;30.65;;;24.38;;
59728;SDS011;45588;51.598;5.618;2023-04-02T01:34:19;33.65;;;27.27;;
59728;SDS011;45588;51.598;5.618;2023-04-02T01:36:53;30.95;;;22.52;;
59728;SDS011;45588;51.598;5.618;2023-04-02T01:39:34;26.88;;;23.58;;
59728;SDS011;45588;51.598;5.618;2023-04-02T01:47:13;28.27;;;21.77;;
59728;SDS011;45588;51.598;5.618;2023-04-02T01:49:40;25.08;;;22.05;;
59728;SDS011;45588;51.598;5.618;2023-04-02T01:52:06;24.70;;;18.65;;
59728;SDS011;45588;51.598;5.618;2023-04-02T01:54:31;24.13;;;18.13;;
59728;SDS011;45588;51.598;5.618;2023-04-02T01:56:57;23.05;;;19.42;;
59728;SDS011;45588;51.598;5.618;2023-04-02T01:59:22;25.10;;;21.05;;
59728;SDS011;45588;51.598;5.618;2023-04-02T02:02:04;25.30;;;20.20;;
59728;SDS011;45588;51.598;5.618;2023-04-02T02:04:29;24.20;;;19.17;;
59728;SDS011;45588;51.598;5.618;2023-04-02T02:06:56;21.17;;;18.80;;
59728;SDS011;45588;51.598;5.618;2023-04-02T02:09:23;20.58;;;16.58;;
59728;SDS011;45588;51.598;5.618;2023-04-02T02:11:50;21.63;;;18.65;;
59728;SDS011;45588;51.598;5.618;2023-04-02T02:14:16;18.80;;;14.15;;
59728;SDS011;45588;51.598;5.618;2023-04-02T02:16:42;19.42;;;17.30;;
59728;SDS011;45588;51.598;5.618;2023-04-02T02:19:52;19.45;;;17.27;;
59728;SDS011;45588;51.598;5.618;2023-04-02T02:22:04;21.90;;;19.80;;
59728;SDS011;45588;51.598;5.618;2023-04-02T02:24:31;18.02;;;15.70;;
59728;SDS011;45588;51.598;5.618;2023-04-02T02:29:41;18.90;;;14.60;;
59728;SDS011;45588;51.598;5.618;2023-04-02T02:32:07;15.55;;;13.80;;
59728;SDS011;45588;51.598;5.618;2023-04-02T02:34:35;19.80;;;15.27;;
59728;SDS011;45588;51.598;5.618;2023-04-02T02:37:03;18.85;;;16.92;;
59728;SDS011;45588;51.598;5.618;2023-04-02T02:39:36;18.83;;;16.70;;
59728;SDS011;45588;51.598;5.618;2023-04-02T02:42:04;19.13;;;16.73;;
59728;SDS011;45588;51.598;5.618;2023-04-02T02:44:34;17.38;;;15.25;;
59728;SDS011;45588;51.598;5.618;2023-04-02T02:47:01;18.75;;;16.95;;
59728;SDS011;45588;51.598;5.618;2023-04-02T02:49:36;18.17;;;16.00;;
59728;SDS011;45588;51.598;5.618;2023-04-02T02:54:27;17.80;;;15.80;;
59728;SDS011;45588;51.598;5.618;2023-04-02T02:56:59;18.42;;;15.15;;
59728;SDS011;45588;51.598;5.618;2023-04-02T02:59:25;15.70;;;13.98;;
59728;SDS011;45588;51.598;5.618;2023-04-02T03:01:51;19.45;;;16.05;;
59728;SDS011;45588;51.598;5.618;2023-04-02T03:04:19;21.20;;;17.90;;
59728;SDS011;45588;51.598;5.618;2023-04-02T03:06:47;25.50;;;21.13;;
59728;SDS011;45588;51.598;5.618;2023-04-02T03:09:19;28.02;;;19.75;;
59728;SDS011;45588;51.598;5.618;2023-04-02T03:11:51;25.02;;;20.10;;
59728;SDS011;45588;51.598;5.618;2023-04-02T03:14:27;27.98;;;22.00;;
59728;SDS011;45588;51.598;5.618;2023-04-02T03:16:59;29.92;;;21.30;;
59728;SDS011;45588;51.598;5.618;2023-04-02T03:19:29;27.92;;;22.40;;
59728;SDS011;45588;51.598;5.618;2023-04-02T03:22:00;29.55;;;22.02;;
59728;SDS011;45588;51.598;5.618;2023-04-02T03:24:35;30.25;;;22.58;;
59728;SDS011;45588;51.598;5.618;2023-04-02T03:29:33;28.20;;;21.63;;
59728;SDS011;45588;51.598;5.618;2023-04-02T03:34:27;26.63;;;21.05;;
59728;SDS011;45588;51.598;5.618;2023-04-02T03:36:57;27.70;;;19.92;;
59728;SDS011;45588;51.598;5.618;2023-04-02T03:44:46;27.83;;;22.77;;
59728;SDS011;45588;51.598;5.618;2023-04-02T03:47:15;27.00;;;19.83;;
59728;SDS011;45588;51.598;5.618;2023-04-02T03:52:26;28.75;;;22.35;;
59728;SDS011;45588;51.598;5.618;2023-04-02T03:54:52;31.15;;;22.02;;
59728;SDS011;45588;51.598;5.618;2023-04-02T03:57:23;28.10;;;22.73;;
59728;SDS011;45588;51.598;5.618;2023-04-02T03:59:53;28.98;;;21.45;;
59728;SDS011;45588;51.598;5.618;2023-04-02T04:04:58;24.17;;;19.30;;
59728;SDS011;45588;51.598;5.618;2023-04-02T04:07:31;23.95;;;19.38;;
59728;SDS011;45588;51.598;5.618;2023-04-02T04:09:58;24.58;;;19.35;;
59728;SDS011;45588;51.598;5.618;2023-04-02T04:12:39;23.70;;;21.02;;
59728;SDS011;45588;51.598;5.618;2023-04-02T04:15:07;22.70;;;17.65;;
59728;SDS011;45588;51.598;5.618;2023-04-02T04:18:08;27.58;;;21.30;;
59728;SDS011;45588;51.598;5.618;2023-04-02T04:20:50;25.58;;;19.95;;
59728;SDS011;45588;51.598;5.618;2023-04-02T04:23:18;23.23;;;19.55;;
59728;SDS011;45588;51.598;5.618;2023-04-02T04:25:55;26.10;;;20.67;;
59728;SDS011;45588;51.598;5.618;2023-04-02T04:30:59;24.77;;;17.05;;
59728;SDS011;45588;51.598;5.618;2023-04-02T04:33:27;24.98;;;19.30;;
59728;SDS011;45588;51.598;5.618;2023-04-02T04:36:02;24.65;;;18.00;;
59728;SDS011;45588;51.598;5.618;2023-04-02T04:38:29;26.02;;;23.45;;
59728;SDS011;45588;51.598;5.618;2023-04-02T04:40:58;26.20;;;21.08;;
59728;SDS011;45588;51.598;5.618;2023-04-02T04:46:07;26.35;;;20.90;;
59728;SDS011;45588;51.598;5.618;2023-04-02T04:48:35;25.23;;;17.08;;
59728;SDS011;45588;51.598;5.618;2023-04-02T04:51:06;26.75;;;19.05;;
59728;SDS011;45588;51.598;5.618;2023-04-02T04:53:33;20.70;;;18.17;;
59728;SDS011;45588;51.598;5.618;2023-04-02T04:56:05;23.63;;;17.42;;
59728;SDS011;45588;51.598;5.618;2023-04-02T05:01:01;24.25;;;18.15;;
59728;SDS011;45588;51.598;5.618;2023-04-02T05:03:38;21.80;;;15.88;;
59728;SDS011;45588;51.598;5.618;2023-04-02T05:06:07;21.95;;;16.25;;
59728;SDS011;45588;51.598;5.618;2023-04-02T05:08:35;21.50;;;15.25;;
59728;SDS011;45588;51.598;5.618;2023-04-02T05:11:05;19.58;;;16.10;;
59728;SDS011;45588;51.598;5.618;2023-04-02T05:13:37;21.43;;;16.83;;
59728;SDS011;45588;51.598;5.618;2023-04-02T05:16:08;24.05;;;17.40;;
59728;SDS011;45588;51.598;5.618;2023-04-02T05:18:42;29.23;;;18.15;;
59728;SDS011;45588;51.598;5.618;2023-04-02T05:21:22;23.00;;;17.25;;
59728;SDS011;45588;51.598;5.618;2023-04-02T05:23:53;22.95;;;18.33;;
59728;SDS011;45588;51.598;5.618;2023-04-02T05:26:20;21.92;;;14.50;;
59728;SDS011;45588;51.598;5.618;2023-04-02T05:29:00;20.13;;;14.18;;
59728;SDS011;45588;51.598;5.618;2023-04-02T05:31:35;19.27;;;15.65;;
59728;SDS011;45588;51.598;5.618;2023-04-02T05:34:01;18.98;;;14.98;;
59728;SDS011;45588;51.598;5.618;2023-04-02T05:36:27;19.48;;;15.65;;
59728;SDS011;45588;51.598;5.618;2023-04-02T05:38:53;18.38;;;15.48;;
59728;SDS011;45588;51.598;5.618;2023-04-02T05:43:58;21.23;;;14.13;;
59728;SDS011;45588;51.598;5.618;2023-04-02T05:46:27;20.48;;;15.23;;
59728;SDS011;45588;51.598;5.618;2023-04-02T05:48:56;21.13;;;13.13;;
59728;SDS011;45588;51.598;5.618;2023-04-02T05:51:27;20.98;;;15.52;;
59728;SDS011;45588;51.598;5.618;2023-04-02T05:53:55;20.35;;;14.40;;
59728;SDS011;45588;51.598;5.618;2023-04-02T05:56:23;24.38;;;18.20;;
59728;SDS011;45588;51.598;5.618;2023-04-02T05:59:03;27.13;;;19.25;;
59728;SDS011;45588;51.598;5.618;2023-04-02T06:04:23;25.42;;;18.38;;
59728;SDS011;45588;51.598;5.618;2023-04-02T06:09:20;26.17;;;18.10;;
59728;SDS011;45588;51.598;5.618;2023-04-02T06:11:50;23.98;;;17.63;;
59728;SDS011;45588;51.598;5.618;2023-04-02T06:14:15;23.75;;;17.88;;
59728;SDS011;45588;51.598;5.618;2023-04-02T06:16:42;21.42;;;17.52;;
59728;SDS011;45588;51.598;5.618;2023-04-02T06:19:12;23.75;;;16.83;;
59728;SDS011;45588;51.598;5.618;2023-04-02T06:21:43;25.05;;;14.80;;
59728;SDS011;45588;51.598;5.618;2023-04-02T06:24:08;20.85;;;16.10;;
59728;SDS011;45588;51.598;5.618;2023-04-02T06:26:39;23.42;;;17.48;;
59728;SDS011;45588;51.598;5.618;2023-04-02T06:29:07;21.15;;;15.43;;
59728;SDS011;45588;51.598;5.618;2023-04-02T06:31:36;24.40;;;14.63;;
59728;SDS011;45588;51.598;5.618;2023-04-02T06:34:03;20.45;;;14.50;;
59728;SDS011;45588;51.598;5.618;2023-04-02T06:36:28;25.60;;;14.98;;
59728;SDS011;45588;51.598;5.618;2023-04-02T06:38:54;21.00;;;12.90;;
59728;SDS011;45588;51.598;5.618;2023-04-02T06:41:22;20.60;;;12.70;;
59728;SDS011;45588;51.598;5.618;2023-04-02T06:43:50;18.17;;;12.40;;
59728;SDS011;45588;51.598;5.618;2023-04-02T06:46:21;19.73;;;13.27;;
59728;SDS011;45588;51.598;5.618;2023-04-02T06:48:47;15.65;;;11.07;;
59728;SDS011;45588;51.598;5.618;2023-04-02T06:51:15;20.10;;;11.48;;
59728;SDS011;45588;51.598;5.618;2023-04-02T06:53:43;18.73;;;10.68;;
59728;SDS011;45588;51.598;5.618;2023-04-02T06:58:34;17.95;;;11.07;;
59728;SDS011;45588;51.598;5.618;2023-04-02T07:01:00;20.30;;;11.70;;
59728;SDS011;45588;51.598;5.618;2023-04-02T07:03:26;14.38;;;9.40;;
59728;SDS011;45588;51.598;5.618;2023-04-02T07:05:52;12.35;;;8.38;;
59728;SDS011;45588;51.598;5.618;2023-04-02T07:08:17;16.40;;;9.02;;
59728;SDS011;45588;51.598;5.618;2023-04-02T07:10:43;15.82;;;9.80;;
59728;SDS011;45588;51.598;5.618;2023-04-02T07:13:11;16.13;;;9.40;;
59728;SDS011;45588;51.598;5.618;2023-04-02T07:15:38;12.93;;;9.13;;
59728;SDS011;45588;51.598;5.618;2023-04-02T07:18:03;13.20;;;7.53;;
59728;SDS011;45588;51.598;5.618;2023-04-02T07:20:29;15.23;;;8.15;;
59728;SDS011;45588;51.598;5.618;2023-04-02T07:22:54;12.80;;;8.25;;
59728;SDS011;45588;51.598;5.618;2023-04-02T07:25:20;14.38;;;8.60;;
59728;SDS011;45588;51.598;5.618;2023-04-02T07:27:45;14.38;;;8.45;;
59728;SDS011;45588;51.598;5.618;2023-04-02T07:30:11;18.40;;;8.75;;
59728;SDS011;45588;51.598;5.618;2023-04-02T07:32:36;12.48;;;7.95;;
59728;SDS011;45588;51.598;5.618;2023-04-02T07:35:02;13.20;;;7.70;;
59728;SDS011;45588;51.598;5.618;2023-04-02T07:37:27;14.27;;;7.38;;
59728;SDS011;45588;51.598;5.618;2023-04-02T07:39:53;12.50;;;7.38;;
59728;SDS011;45588;51.598;5.618;2023-04-02T07:42:18;17.20;;;6.75;;
59728;SDS011;45588;51.598;5.618;2023-04-02T07:44:43;15.32;;;7.35;;
59728;SDS011;45588;51.598;5.618;2023-04-02T07:47:08;12.55;;;6.63;;
59728;SDS011;45588;51.598;5.618;2023-04-02T07:49:34;14.07;;;6.75;;
59728;SDS011;45588;51.598;5.618;2023-04-02T07:51:59;10.50;;;6.10;;
59728;SDS011;45588;51.598;5.618;2023-04-02T07:54:24;13.55;;;6.93;;
59728;SDS011;45588;51.598;5.618;2023-04-02T07:56:51;15.35;;;6.22;;
59728;SDS011;45588;51.598;5.618;2023-04-02T07:59:16;12.20;;;6.03;;
59728;SDS011;45588;51.598;5.618;2023-04-02T08:01:41;10.93;;;7.72;;
59728;SDS011;45588;51.598;5.618;2023-04-02T08:04:08;13.25;;;6.95;;
59728;SDS011;45588;51.598;5.618;2023-04-02T08:06:39;11.65;;;6.53;;
59728;SDS011;45588;51.598;5.618;2023-04-02T08:09:04;11.45;;;7.30;;
59728;SDS011;45588;51.598;5.618;2023-04-02T08:11:30;13.93;;;6.80;;
59728;SDS011;45588;51.598;5.618;2023-04-02T08:13:55;9.75;;;6.22;;
59728;SDS011;45588;51.598;5.618;2023-04-02T08:16:20;14.57;;;6.15;;
59728;SDS011;45588;51.598;5.618;2023-04-02T08:18:47;9.70;;;5.57;;
59728;SDS011;45588;51.598;5.618;2023-04-02T08:21:12;10.93;;;5.93;;
59728;SDS011;45588;51.598;5.618;2023-04-02T08:23:38;10.40;;;5.65;;
59728;SDS011;45588;51.598;5.618;2023-04-02T08:26:04;8.90;;;5.35;;
59728;SDS011;45588;51.598;5.618;2023-04-02T08:28:29;8.23;;;5.60;;
59728;SDS011;45588;51.598;5.618;2023-04-02T08:30:54;10.90;;;5.78;;
59728;SDS011;45588;51.598;5.618;2023-04-02T08:33:20;13.82;;;6.70;;
59728;SDS011;45588;51.598;5.618;2023-04-02T08:35:45;12.07;;;6.20;;
59728;SDS011;45588;51.598;5.618;2023-04-02T08:38:15;10.13;;;6.20;;
59728;SDS011;45588;51.598;5.618;2023-04-02T08:40:41;9.48;;;5.32;;
59728;SDS011;45588;51.598;5.618;2023-04-02T08:43:26;13.80;;;5.53;;
59728;SDS011;45588;51.598;5.618;2023-04-02T08:48:25;9.57;;;5.20;;
59728;SDS011;45588;51.598;5.618;2023-04-02T08:50:51;12.25;;;5.95;;
59728;SDS011;45588;51.598;5.618;2023-04-02T08:53:23;8.60;;;5.38;;
59728;SDS011;45588;51.598;5.618;2023-04-02T08:55:59;10.75;;;4.43;;
59728;SDS011;45588;51.598;5.618;2023-04-02T09:00:55;11.35;;;5.75;;
59728;SDS011;45588;51.598;5.618;2023-04-02T09:05:46;9.07;;;5.00;;
59728;SDS011;45588;51.598;5.618;2023-04-02T09:08:16;11.80;;;6.15;;
59728;SDS011;45588;51.598;5.618;2023-04-02T09:10:46;11.27;;;5.60;;
59728;SDS011;45588;51.598;5.618;2023-04-02T09:13:15;10.98;;;5.88;;
59728;SDS011;45588;51.598;5.618;2023-04-02T09:15:41;10.45;;;5.63;;
59728;SDS011;45588;51.598;5.618;2023-04-02T09:18:12;8.35;;;5.03;;
59728;SDS011;45588;51.598;5.618;2023-04-02T09:20:37;10.03;;;5.00;;
59728;SDS011;45588;51.598;5.618;2023-04-02T09:23:03;10.60;;;5.40;;
59728;SDS011;45588;51.598;5.618;2023-04-02T09:25:29;11.15;;;5.35;;
59728;SDS011;45588;51.598;5.618;2023-04-02T09:28:01;11.90;;;5.68;;
59728;SDS011;45588;51.598;5.618;2023-04-02T09:32:56;7.90;;;5.10;;
59728;SDS011;45588;51.598;5.618;2023-04-02T09:37:47;9.10;;;5.25;;
59728;SDS011;45588;51.598;5.618;2023-04-02T09:41:18;10.70;;;4.70;;
59728;SDS011;45588;51.598;5.618;2023-04-02T09:43:19;9.73;;;4.45;;
59728;SDS011;45588;51.598;5.618;2023-04-02T09:45:54;9.63;;;5.00;;
59728;SDS011;45588;51.598;5.618;2023-04-02T09:48:26;7.72;;;5.20;;
59728;SDS011;45588;51.598;5.618;2023-04-02T09:53:49;9.32;;;5.60;;
59728;SDS011;45588;51.598;5.618;2023-04-02T09:56:16;8.48;;;4.88;;
59728;SDS011;45588;51.598;5.618;2023-04-02T09:58:42;7.38;;;4.93;;
59728;SDS011;45588;51.598;5.618;2023-04-02T10:01:24;8.07;;;4.65;;
59728;SDS011;45588;51.598;5.618;2023-04-02T10:03:50;6.72;;;4.25;;
59728;SDS011;45588;51.598;5.618;2023-04-02T10:06:15;9.23;;;5.43;;
59728;SDS011;45588;51.598;5.618;2023-04-02T10:08:42;11.07;;;4.93;;
59728;SDS011;45588;51.598;5.618;2023-04-02T10:11:09;8.07;;;4.60;;
59728;SDS011;45588;51.598;5.618;2023-04-02T10:13:48;7.00;;;4.82;;
59728;SDS011;45588;51.598;5.618;2023-04-02T10:16:16;9.60;;;4.93;;
59728;SDS011;45588;51.598;5.618;2023-04-02T10:21:16;7.85;;;4.55;;
59728;SDS011;45588;51.598;5.618;2023-04-02T10:23:42;8.50;;;4.88;;
59728;SDS011;45588;51.598;5.618;2023-04-02T10:31:05;9.25;;;5.30;;
59728;SDS011;45588;51.598;5.618;2023-04-02T10:33:34;9.73;;;5.53;;
59728;SDS011;45588;51.598;5.618;2023-04-02T10:36:07;8.40;;;5.07;;
59728;SDS011;45588;51.598;5.618;2023-04-02T10:54:36;10.27;;;5.47;;
59728;SDS011;45588;51.598;5.618;2023-04-02T10:57:05;6.95;;;4.40;;
59728;SDS011;45588;51.598;5.618;2023-04-02T10:59:33;11.35;;;4.68;;
59728;SDS011;45588;51.598;5.618;2023-04-02T11:01:59;10.85;;;5.07;;
59728;SDS011;45588;51.598;5.618;2023-04-02T11:04:28;11.57;;;4.88;;
59728;SDS011;45588;51.598;5.618;2023-04-02T11:07:04;8.27;;;4.35;;
59728;SDS011;45588;51.598;5.618;2023-04-02T11:09:31;6.32;;;4.22;;
59728;SDS011;45588;51.598;5.618;2023-04-02T11:11:58;9.98;;;3.75;;
59728;SDS011;45588;51.598;5.618;2023-04-02T11:14:25;7.65;;;3.97;;
59728;SDS011;45588;51.598;5.618;2023-04-02T11:16:51;7.05;;;3.67;;
59728;SDS011;45588;51.598;5.618;2023-04-02T11:21:42;7.43;;;3.78;;
59728;SDS011;45588;51.598;5.618;2023-04-02T11:26:54;7.72;;;3.90;;
59728;SDS011;45588;51.598;5.618;2023-04-02T11:29:30;6.38;;;3.67;;
59728;SDS011;45588;51.598;5.618;2023-04-02T11:32:13;7.53;;;3.45;;
59728;SDS011;45588;51.598;5.618;2023-04-02T11:37:07;6.88;;;3.75;;
59728;SDS011;45588;51.598;5.618;2023-04-02T11:39:49;9.88;;;3.92;;
59728;SDS011;45588;51.598;5.618;2023-04-02T11:44:43;9.60;;;4.85;;
59728;SDS011;45588;51.598;5.618;2023-04-02T11:47:18;7.93;;;3.95;;
59728;SDS011;45588;51.598;5.618;2023-04-02T11:55:24;5.72;;;3.95;;
59728;SDS011;45588;51.598;5.618;2023-04-02T11:58:16;9.63;;;4.03;;
59728;SDS011;45588;51.598;5.618;2023-04-02T12:05:41;7.45;;;4.55;;
59728;SDS011;45588;51.598;5.618;2023-04-02T12:11:05;6.18;;;4.28;;
59728;SDS011;45588;51.598;5.618;2023-04-02T12:16:05;7.03;;;3.65;;
59728;SDS011;45588;51.598;5.618;2023-04-02T12:18:31;5.10;;;3.10;;
59728;SDS011;45588;51.598;5.618;2023-04-02T12:20:57;5.90;;;4.22;;
59728;SDS011;45588;51.598;5.618;2023-04-02T12:23:23;5.57;;;3.20;;
59728;SDS011;45588;51.598;5.618;2023-04-02T12:26:00;6.45;;;3.10;;
59728;SDS011;45588;51.598;5.618;2023-04-02T12:28:26;4.90;;;3.08;;
59728;SDS011;45588;51.598;5.618;2023-04-02T12:31:15;4.57;;;2.55;;
59728;SDS011;45588;51.598;5.618;2023-04-02T12:33:42;6.40;;;3.40;;
59728;SDS011;45588;51.598;5.618;2023-04-02T12:38:51;4.65;;;3.10;;
59728;SDS011;45588;51.598;5.618;2023-04-02T12:43:45;4.95;;;4.05;;
59728;SDS011;45588;51.598;5.618;2023-04-02T12:46:11;8.23;;;3.30;;
59728;SDS011;45588;51.598;5.618;2023-04-02T12:48:38;6.20;;;3.53;;
59728;SDS011;45588;51.598;5.618;2023-04-02T12:51:03;5.22;;;3.30;;
59728;SDS011;45588;51.598;5.618;2023-04-02T12:53:33;7.70;;;4.88;;
59728;SDS011;45588;51.598;5.618;2023-04-02T12:55:58;7.75;;;3.60;;
59728;SDS011;45588;51.598;5.618;2023-04-02T13:00:49;6.18;;;4.07;;
59728;SDS011;45588;51.598;5.618;2023-04-02T13:03:16;7.78;;;3.72;;
59728;SDS011;45588;51.598;5.618;2023-04-02T13:05:54;4.82;;;3.50;;
59728;SDS011;45588;51.598;5.618;2023-04-02T13:11:04;6.35;;;3.53;;
59728;SDS011;45588;51.598;5.618;2023-04-02T13:13:36;6.38;;;3.70;;
59728;SDS011;45588;51.598;5.618;2023-04-02T13:16:03;6.35;;;3.45;;
59728;SDS011;45588;51.598;5.618;2023-04-02T13:18:29;5.82;;;3.55;;
59728;SDS011;45588;51.598;5.618;2023-04-02T13:21:04;6.97;;;3.60;;
59728;SDS011;45588;51.598;5.618;2023-04-02T13:23:31;5.07;;;3.10;;
59728;SDS011;45588;51.598;5.618;2023-04-02T13:26:30;7.85;;;3.67;;
59728;SDS011;45588;51.598;5.618;2023-04-02T13:29:01;11.63;;;3.65;;
59728;SDS011;45588;51.598;5.618;2023-04-02T13:31:27;8.20;;;3.88;;
59728;SDS011;45588;51.598;5.618;2023-04-02T13:33:53;7.88;;;3.88;;
59728;SDS011;45588;51.598;5.618;2023-04-02T13:36:18;7.35;;;3.92;;
59728;SDS011;45588;51.598;5.618;2023-04-02T13:38:43;6.20;;;3.53;;
59728;SDS011;45588;51.598;5.618;2023-04-02T13:41:16;6.90;;;3.20;;
59728;SDS011;45588;51.598;5.618;2023-04-02T13:43:42;7.22;;;3.88;;
59728;SDS011;45588;51.598;5.618;2023-04-02T13:46:08;8.37;;;4.10;;
59728;SDS011;45588;51.598;5.618;2023-04-02T13:48:41;7.40;;;3.45;;
59728;SDS011;45588;51.598;5.618;2023-04-02T13:51:07;7.95;;;4.53;;
59728;SDS011;45588;51.598;5.618;2023-04-02T13:53:33;5.05;;;3.40;;
59728;SDS011;45588;51.598;5.618;2023-04-02T13:55:58;3.13;;;2.80;;
59728;SDS011;45588;51.598;5.618;2023-04-02T13:58:24;3.75;;;3.28;;
59728;SDS011;45588;51.598;5.618;2023-04-02T14:00:49;4.97;;;2.23;;
59728;SDS011;45588;51.598;5.618;2023-04-02T14:03:18;7.22;;;3.33;;
59728;SDS011;45588;51.598;5.618;2023-04-02T14:19:04;9.35;;;3.25;;
59728;SDS011;45588;51.598;5.618;2023-04-02T14:21:43;6.63;;;2.67;;
59728;SDS011;45588;51.598;5.618;2023-04-02T14:32:12;7.85;;;3.45;;
59728;SDS011;45588;51.598;5.618;2023-04-02T14:34:45;4.43;;;3.72;;
59728;SDS011;45588;51.598;5.618;2023-04-02T14:37:17;6.45;;;4.07;;
59728;SDS011;45588;51.598;5.618;2023-04-02T14:39:49;6.93;;;3.55;;
59728;SDS011;45588;51.598;5.618;2023-04-02T14:42:18;4.50;;;3.00;;
59728;SDS011;45588;51.598;5.618;2023-04-02T14:44:49;5.78;;;3.78;;
59728;SDS011;45588;51.598;5.618;2023-04-02T14:47:17;6.50;;;3.95;;
59728;SDS011;45588;51.598;5.618;2023-04-02T14:49:42;3.38;;;2.30;;
59728;SDS011;45588;51.598;5.618;2023-04-02T14:52:13;7.85;;;3.17;;
59728;SDS011;45588;51.598;5.618;2023-04-02T14:54:53;5.85;;;3.90;;
59728;SDS011;45588;51.598;5.618;2023-04-02T14:57:34;5.55;;;3.10;;
59728;SDS011;45588;51.598;5.618;2023-04-02T15:02:37;6.82;;;2.78;;
59728;SDS011;45588;51.598;5.618;2023-04-02T15:05:13;5.07;;;3.05;;
59728;SDS011;45588;51.598;5.618;2023-04-02T15:07:40;6.57;;;3.58;;
59728;SDS011;45588;51.598;5.618;2023-04-02T15:10:13;5.65;;;3.10;;
59728;SDS011;45588;51.598;5.618;2023-04-02T15:12:40;5.80;;;2.78;;
59728;SDS011;45588;51.598;5.618;2023-04-02T15:15:22;5.93;;;2.97;;
59728;SDS011;45588;51.598;5.618;2023-04-02T15:17:52;5.75;;;3.50;;
59728;SDS011;45588;51.598;5.618;2023-04-02T15:20:18;7.70;;;3.73;;
59728;SDS011;45588;51.598;5.618;2023-04-02T15:25:28;4.43;;;2.30;;
59728;SDS011;45588;51.598;5.618;2023-04-02T15:30:40;5.28;;;3.30;;
59728;SDS011;45588;51.598;5.618;2023-04-02T15:35:51;9.57;;;3.03;;
59728;SDS011;45588;51.598;5.618;2023-04-02T15:38:18;4.93;;;3.40;;
59728;SDS011;45588;51.598;5.618;2023-04-02T15:46:11;7.70;;;2.95;;
59728;SDS011;45588;51.598;5.618;2023-04-02T15:56:18;4.20;;;2.55;;
59728;SDS011;45588;51.598;5.618;2023-04-02T16:01:13;5.18;;;2.63;;
59728;SDS011;45588;51.598;5.618;2023-04-02T16:03:53;5.85;;;3.42;;
59728;SDS011;45588;51.598;5.618;2023-04-02T16:06:27;5.60;;;2.40;;
59728;SDS011;45588;51.598;5.618;2023-04-02T16:08:56;7.70;;;3.30;;
59728;SDS011;45588;51.598;5.618;2023-04-02T16:11:22;5.93;;;2.63;;
59728;SDS011;45588;51.598;5.618;2023-04-02T16:13:48;2.85;;;2.50;;
59728;SDS011;45588;51.598;5.618;2023-04-02T16:21:18;6.00;;;3.10;;
59728;SDS011;45588;51.598;5.618;2023-04-02T16:23:44;4.70;;;2.95;;
59728;SDS011;45588;51.598;5.618;2023-04-02T16:31:26;7.40;;;3.17;;
59728;SDS011;45588;51.598;5.618;2023-04-02T16:36:44;5.55;;;2.60;;
59728;SDS011;45588;51.598;5.618;2023-04-02T16:39:16;4.55;;;2.70;;
59728;SDS011;45588;51.598;5.618;2023-04-02T16:47:01;6.13;;;3.10;;
59728;SDS011;45588;51.598;5.618;2023-04-02T16:49:35;4.35;;;2.78;;
59728;SDS011;45588;51.598;5.618;2023-04-02T17:07:32;6.73;;;3.30;;
59728;SDS011;45588;51.598;5.618;2023-04-02T17:12:29;5.70;;;3.00;;
59728;SDS011;45588;51.598;5.618;2023-04-02T17:15:00;4.88;;;2.70;;
59728;SDS011;45588;51.598;5.618;2023-04-02T17:17:26;5.95;;;2.42;;
59728;SDS011;45588;51.598;5.618;2023-04-02T17:19:54;2.67;;;2.05;;
59728;SDS011;45588;51.598;5.618;2023-04-02T17:22:20;4.90;;;2.20;;
59728;SDS011;45588;51.598;5.618;2023-04-02T17:24:48;3.45;;;2.08;;
59728;SDS011;45588;51.598;5.618;2023-04-02T17:27:22;4.40;;;2.40;;
59728;SDS011;45588;51.598;5.618;2023-04-02T17:29:50;5.72;;;2.72;;
59728;SDS011;45588;51.598;5.618;2023-04-02T17:32:19;6.43;;;2.38;;
59728;SDS011;45588;51.598;5.618;2023-04-02T17:34:45;3.25;;;2.10;;
59728;SDS011;45588;51.598;5.618;2023-04-02T17:37:29;4.93;;;2.33;;
59728;SDS011;45588;51.598;5.618;2023-04-02T17:40:46;5.35;;;2.65;;
59728;SDS011;45588;51.598;5.618;2023-04-02T17:42:54;3.53;;;2.17;;
59728;SDS011;45588;51.598;5.618;2023-04-02T17:55:37;4.22;;;2.60;;
59728;SDS011;45588;51.598;5.618;2023-04-02T18:03:22;3.15;;;2.70;;
59728;SDS011;45588;51.598;5.618;2023-04-02T18:11:04;4.75;;;2.67;;
59728;SDS011;45588;51.598;5.618;2023-04-02T18:13:34;5.93;;;2.70;;
59728;SDS011;45588;51.598;5.618;2023-04-02T18:19:31;3.88;;;2.65;;
59728;SDS011;45588;51.598;5.618;2023-04-02T18:42:27;3.45;;;2.75;;
59728;SDS011;45588;51.598;5.618;2023-04-02T18:52:37;4.18;;;2.38;;
59728;SDS011;45588;51.598;5.618;2023-04-02T18:55:21;3.78;;;2.90;;
59728;SDS011;45588;51.598;5.618;2023-04-02T18:57:50;5.72;;;3.10;;
59728;SDS011;45588;51.598;5.618;2023-04-02T19:03:05;4.78;;;2.80;;
59728;SDS011;45588;51.598;5.618;2023-04-02T19:08:16;4.03;;;2.90;;
59728;SDS011;45588;51.598;5.618;2023-04-02T19:10:43;4.00;;;3.17;;
59728;SDS011;45588;51.598;5.618;2023-04-02T19:13:18;4.45;;;2.95;;
59728;SDS011;45588;51.598;5.618;2023-04-02T19:25:56;4.65;;;3.50;;
59728;SDS011;45588;51.598;5.618;2023-04-02T19:31:10;5.97;;;3.38;;
59728;SDS011;45588;51.598;5.618;2023-04-02T19:36:15;7.03;;;3.90;;
59728;SDS011;45588;51.598;5.618;2023-04-02T19:44:10;7.13;;;4.20;;